sensor_id;sensor_type;location;lat;lon;timestamp;P1;durP1;ratioP1;P2;durP2;ratioP2
15848;SDS011;8024;48.708;9.394;2022-08-21T00:00:45;2.27;;;2.17;;
15848;SDS011;8024;48.708;9.394;2022-08-21T00:03:13;2.50;;;1.90;;
15848;SDS011;8024;48.708;9.394;2022-08-21T00:05:43;2.60;;;1.40;;
15848;SDS011;8024;48.708;9.394;2022-08-21T00:08:14;2.53;;;1.63;;
15848;SDS011;8024;48.708;9.394;2022-08-21T00:10:43;1.67;;;1.57;;
15848;SDS011;8024;48.708;9.394;2022-08-21T00:13:11;2.43;;;1.70;;
15848;SDS011;8024;48.708;9.394;2022-08-21T00:15:40;2.93;;;1.90;;
15848;SDS011;8024;48.708;9.394;2022-08-21T00:18:08;3.03;;;1.73;;
15848;SDS011;8024;48.708;9.394;2022-08-21T00:20:36;1.87;;;1.70;;
15848;SDS011;8024;48.708;9.394;2022-08-21T00:23:06;3.23;;;1.50;;
15848;SDS011;8024;48.708;9.394;2022-08-21T00:25:34;3.07;;;2.10;;
15848;SDS011;8024;48.708;9.394;2022-08-21T00:28:01;2.47;;;1.93;;
15848;SDS011;8024;48.708;9.394;2022-08-21T00:30:29;1.73;;;1.63;;
15848;SDS011;8024;48.708;9.394;2022-08-21T00:32:57;1.77;;;1.37;;
15848;SDS011;8024;48.708;9.394;2022-08-21T00:35:28;3.80;;;2.20;;
15848;SDS011;8024;48.708;9.394;2022-08-21T00:37:57;1.73;;;1.63;;
15848;SDS011;8024;48.708;9.394;2022-08-21T00:40:27;3.13;;;2.10;;
15848;SDS011;8024;48.708;9.394;2022-08-21T00:42:56;2.53;;;1.73;;
15848;SDS011;8024;48.708;9.394;2022-08-21T00:45:24;8.53;;;2.23;;
15848;SDS011;8024;48.708;9.394;2022-08-21T00:47:52;3.07;;;1.57;;
15848;SDS011;8024;48.708;9.394;2022-08-21T00:50:21;3.93;;;2.37;;
15848;SDS011;8024;48.708;9.394;2022-08-21T00:52:49;1.63;;;1.53;;
15848;SDS011;8024;48.708;9.394;2022-08-21T00:55:16;2.47;;;1.70;;
15848;SDS011;8024;48.708;9.394;2022-08-21T00:57:48;2.13;;;1.63;;
15848;SDS011;8024;48.708;9.394;2022-08-21T01:00:19;2.47;;;2.00;;
15848;SDS011;8024;48.708;9.394;2022-08-21T01:02:48;3.40;;;2.00;;
15848;SDS011;8024;48.708;9.394;2022-08-21T01:05:15;2.43;;;2.00;;
15848;SDS011;8024;48.708;9.394;2022-08-21T01:07:42;1.90;;;1.80;;
15848;SDS011;8024;48.708;9.394;2022-08-21T01:10:10;4.10;;;2.10;;
15848;SDS011;8024;48.708;9.394;2022-08-21T01:12:37;2.87;;;1.87;;
15848;SDS011;8024;48.708;9.394;2022-08-21T01:15:08;2.90;;;1.50;;
15848;SDS011;8024;48.708;9.394;2022-08-21T01:17:36;2.23;;;2.00;;
15848;SDS011;8024;48.708;9.394;2022-08-21T01:20:05;3.23;;;1.80;;
15848;SDS011;8024;48.708;9.394;2022-08-21T01:22:35;1.70;;;1.60;;
15848;SDS011;8024;48.708;9.394;2022-08-21T01:25:03;3.17;;;1.73;;
15848;SDS011;8024;48.708;9.394;2022-08-21T01:27:32;2.50;;;2.00;;
15848;SDS011;8024;48.708;9.394;2022-08-21T01:30:03;2.93;;;1.60;;
15848;SDS011;8024;48.708;9.394;2022-08-21T01:32:34;2.80;;;2.00;;
15848;SDS011;8024;48.708;9.394;2022-08-21T01:35:02;2.90;;;1.77;;
15848;SDS011;8024;48.708;9.394;2022-08-21T01:37:30;2.47;;;1.53;;
15848;SDS011;8024;48.708;9.394;2022-08-21T01:39:58;2.73;;;2.10;;
15848;SDS011;8024;48.708;9.394;2022-08-21T01:42:26;2.73;;;2.00;;
15848;SDS011;8024;48.708;9.394;2022-08-21T01:44:53;2.23;;;2.13;;
15848;SDS011;8024;48.708;9.394;2022-08-21T01:47:21;2.53;;;1.87;;
15848;SDS011;8024;48.708;9.394;2022-08-21T01:49:49;2.30;;;1.70;;
15848;SDS011;8024;48.708;9.394;2022-08-21T01:52:16;2.23;;;2.03;;
15848;SDS011;8024;48.708;9.394;2022-08-21T01:54:44;2.20;;;2.00;;
15848;SDS011;8024;48.708;9.394;2022-08-21T01:57:13;3.37;;;2.37;;
15848;SDS011;8024;48.708;9.394;2022-08-21T01:59:40;2.40;;;2.17;;
15848;SDS011;8024;48.708;9.394;2022-08-21T02:02:08;2.50;;;2.37;;
15848;SDS011;8024;48.708;9.394;2022-08-21T02:04:35;2.00;;;1.90;;
15848;SDS011;8024;48.708;9.394;2022-08-21T02:07:03;2.27;;;2.10;;
15848;SDS011;8024;48.708;9.394;2022-08-21T02:09:30;3.13;;;1.90;;
15848;SDS011;8024;48.708;9.394;2022-08-21T02:11:57;3.37;;;1.77;;
15848;SDS011;8024;48.708;9.394;2022-08-21T02:14:26;2.30;;;2.03;;
15848;SDS011;8024;48.708;9.394;2022-08-21T02:16:53;2.93;;;1.90;;
15848;SDS011;8024;48.708;9.394;2022-08-21T02:19:20;2.20;;;2.03;;
15848;SDS011;8024;48.708;9.394;2022-08-21T02:21:47;3.07;;;1.83;;
15848;SDS011;8024;48.708;9.394;2022-08-21T02:24:14;2.57;;;1.97;;
15848;SDS011;8024;48.708;9.394;2022-08-21T02:26:41;2.50;;;2.30;;
15848;SDS011;8024;48.708;9.394;2022-08-21T02:29:09;3.57;;;2.27;;
15848;SDS011;8024;48.708;9.394;2022-08-21T02:31:37;2.40;;;2.20;;
15848;SDS011;8024;48.708;9.394;2022-08-21T02:34:04;1.97;;;1.90;;
15848;SDS011;8024;48.708;9.394;2022-08-21T02:36:32;2.60;;;2.40;;
15848;SDS011;8024;48.708;9.394;2022-08-21T02:38:59;2.23;;;2.13;;
15848;SDS011;8024;48.708;9.394;2022-08-21T02:41:26;3.10;;;2.30;;
15848;SDS011;8024;48.708;9.394;2022-08-21T02:43:53;2.60;;;2.40;;
15848;SDS011;8024;48.708;9.394;2022-08-21T02:46:21;2.30;;;2.20;;
15848;SDS011;8024;48.708;9.394;2022-08-21T02:48:50;3.93;;;2.37;;
15848;SDS011;8024;48.708;9.394;2022-08-21T02:51:18;2.50;;;2.10;;
15848;SDS011;8024;48.708;9.394;2022-08-21T02:53:47;2.70;;;2.00;;
15848;SDS011;8024;48.708;9.394;2022-08-21T02:56:16;2.57;;;2.30;;
15848;SDS011;8024;48.708;9.394;2022-08-21T02:58:45;3.23;;;2.37;;
15848;SDS011;8024;48.708;9.394;2022-08-21T03:01:14;4.03;;;1.93;;
15848;SDS011;8024;48.708;9.394;2022-08-21T03:03:42;3.73;;;2.87;;
15848;SDS011;8024;48.708;9.394;2022-08-21T03:06:13;2.90;;;2.00;;
15848;SDS011;8024;48.708;9.394;2022-08-21T03:08:41;2.00;;;1.80;;
15848;SDS011;8024;48.708;9.394;2022-08-21T03:11:10;2.17;;;1.97;;
15848;SDS011;8024;48.708;9.394;2022-08-21T03:13:38;2.77;;;1.73;;
15848;SDS011;8024;48.708;9.394;2022-08-21T03:16:05;1.90;;;1.70;;
15848;SDS011;8024;48.708;9.394;2022-08-21T03:18:33;2.23;;;2.13;;
15848;SDS011;8024;48.708;9.394;2022-08-21T03:21:01;3.83;;;2.10;;
15848;SDS011;8024;48.708;9.394;2022-08-21T03:23:29;2.63;;;2.43;;
15848;SDS011;8024;48.708;9.394;2022-08-21T03:25:57;1.87;;;1.73;;
15848;SDS011;8024;48.708;9.394;2022-08-21T03:28:24;2.30;;;2.10;;
15848;SDS011;8024;48.708;9.394;2022-08-21T03:30:52;4.00;;;2.37;;
15848;SDS011;8024;48.708;9.394;2022-08-21T03:33:20;2.37;;;2.17;;
15848;SDS011;8024;48.708;9.394;2022-08-21T03:35:49;2.80;;;2.53;;
15848;SDS011;8024;48.708;9.394;2022-08-21T03:38:21;2.73;;;2.30;;
15848;SDS011;8024;48.708;9.394;2022-08-21T03:40:50;2.60;;;2.40;;
15848;SDS011;8024;48.708;9.394;2022-08-21T03:43:17;2.63;;;2.47;;
15848;SDS011;8024;48.708;9.394;2022-08-21T03:45:44;2.70;;;2.30;;
15848;SDS011;8024;48.708;9.394;2022-08-21T03:48:12;2.63;;;2.43;;
15848;SDS011;8024;48.708;9.394;2022-08-21T03:50:40;3.33;;;2.27;;
15848;SDS011;8024;48.708;9.394;2022-08-21T03:53:10;3.00;;;2.70;;
15848;SDS011;8024;48.708;9.394;2022-08-21T03:55:38;3.73;;;2.40;;
15848;SDS011;8024;48.708;9.394;2022-08-21T03:58:06;3.17;;;2.97;;
15848;SDS011;8024;48.708;9.394;2022-08-21T04:00:34;3.10;;;2.70;;
15848;SDS011;8024;48.708;9.394;2022-08-21T04:03:02;3.03;;;2.50;;
15848;SDS011;8024;48.708;9.394;2022-08-21T04:05:29;3.00;;;2.80;;
15848;SDS011;8024;48.708;9.394;2022-08-21T04:07:58;3.60;;;3.40;;
15848;SDS011;8024;48.708;9.394;2022-08-21T04:10:28;2.90;;;2.70;;
15848;SDS011;8024;48.708;9.394;2022-08-21T04:12:56;3.13;;;2.50;;
15848;SDS011;8024;48.708;9.394;2022-08-21T04:15:26;2.60;;;2.37;;
15848;SDS011;8024;48.708;9.394;2022-08-21T04:17:53;2.97;;;2.43;;
15848;SDS011;8024;48.708;9.394;2022-08-21T04:20:21;2.63;;;2.47;;
15848;SDS011;8024;48.708;9.394;2022-08-21T04:22:50;3.63;;;2.00;;
15848;SDS011;8024;48.708;9.394;2022-08-21T04:25:18;5.47;;;2.33;;
15848;SDS011;8024;48.708;9.394;2022-08-21T04:27:47;2.67;;;2.47;;
15848;SDS011;8024;48.708;9.394;2022-08-21T04:30:16;3.00;;;2.77;;
15848;SDS011;8024;48.708;9.394;2022-08-21T04:32:45;3.53;;;2.40;;
15848;SDS011;8024;48.708;9.394;2022-08-21T04:35:14;3.03;;;2.60;;
15848;SDS011;8024;48.708;9.394;2022-08-21T04:37:42;3.50;;;2.70;;
15848;SDS011;8024;48.708;9.394;2022-08-21T04:40:10;5.17;;;3.00;;
15848;SDS011;8024;48.708;9.394;2022-08-21T04:42:43;2.67;;;2.47;;
15848;SDS011;8024;48.708;9.394;2022-08-21T04:45:18;3.20;;;2.90;;
15848;SDS011;8024;48.708;9.394;2022-08-21T04:47:49;3.63;;;3.37;;
15848;SDS011;8024;48.708;9.394;2022-08-21T04:50:17;5.33;;;3.80;;
15848;SDS011;8024;48.708;9.394;2022-08-21T04:52:44;3.77;;;3.40;;
15848;SDS011;8024;48.708;9.394;2022-08-21T04:55:13;3.00;;;2.80;;
15848;SDS011;8024;48.708;9.394;2022-08-21T04:57:42;2.80;;;2.60;;
15848;SDS011;8024;48.708;9.394;2022-08-21T05:00:10;3.73;;;2.50;;
15848;SDS011;8024;48.708;9.394;2022-08-21T05:02:38;3.73;;;2.80;;
15848;SDS011;8024;48.708;9.394;2022-08-21T05:05:08;2.93;;;2.60;;
15848;SDS011;8024;48.708;9.394;2022-08-21T05:07:35;3.47;;;3.17;;
15848;SDS011;8024;48.708;9.394;2022-08-21T05:10:04;7.20;;;2.73;;
15848;SDS011;8024;48.708;9.394;2022-08-21T05:12:33;2.90;;;2.23;;
15848;SDS011;8024;48.708;9.394;2022-08-21T05:15:01;3.23;;;2.87;;
15848;SDS011;8024;48.708;9.394;2022-08-21T05:17:29;3.20;;;2.90;;
15848;SDS011;8024;48.708;9.394;2022-08-21T05:19:56;3.17;;;2.57;;
15848;SDS011;8024;48.708;9.394;2022-08-21T05:22:25;7.07;;;2.90;;
15848;SDS011;8024;48.708;9.394;2022-08-21T05:24:52;2.43;;;2.33;;
15848;SDS011;8024;48.708;9.394;2022-08-21T05:27:19;2.83;;;2.73;;
15848;SDS011;8024;48.708;9.394;2022-08-21T05:29:46;2.77;;;2.60;;
15848;SDS011;8024;48.708;9.394;2022-08-21T05:32:14;3.63;;;2.57;;
15848;SDS011;8024;48.708;9.394;2022-08-21T05:34:41;3.03;;;2.83;;
15848;SDS011;8024;48.708;9.394;2022-08-21T05:37:10;4.13;;;2.57;;
15848;SDS011;8024;48.708;9.394;2022-08-21T05:39:39;3.77;;;2.57;;
15848;SDS011;8024;48.708;9.394;2022-08-21T05:42:07;2.83;;;2.63;;
15848;SDS011;8024;48.708;9.394;2022-08-21T05:44:34;3.20;;;2.73;;
15848;SDS011;8024;48.708;9.394;2022-08-21T05:47:02;2.97;;;2.77;;
15848;SDS011;8024;48.708;9.394;2022-08-21T05:49:30;3.17;;;2.97;;
15848;SDS011;8024;48.708;9.394;2022-08-21T05:51:58;3.03;;;2.83;;
15848;SDS011;8024;48.708;9.394;2022-08-21T05:54:25;3.67;;;3.10;;
15848;SDS011;8024;48.708;9.394;2022-08-21T05:56:54;3.00;;;2.70;;
15848;SDS011;8024;48.708;9.394;2022-08-21T05:59:21;3.07;;;2.77;;
15848;SDS011;8024;48.708;9.394;2022-08-21T06:01:49;4.30;;;2.57;;
15848;SDS011;8024;48.708;9.394;2022-08-21T06:04:17;2.83;;;2.63;;
15848;SDS011;8024;48.708;9.394;2022-08-21T06:06:45;2.67;;;2.50;;
15848;SDS011;8024;48.708;9.394;2022-08-21T06:09:13;2.63;;;2.43;;
15848;SDS011;8024;48.708;9.394;2022-08-21T06:11:40;3.00;;;2.80;;
15848;SDS011;8024;48.708;9.394;2022-08-21T06:14:09;2.53;;;2.33;;
15848;SDS011;8024;48.708;9.394;2022-08-21T06:16:39;2.40;;;2.20;;
15848;SDS011;8024;48.708;9.394;2022-08-21T06:19:06;2.53;;;2.03;;
15848;SDS011;8024;48.708;9.394;2022-08-21T06:21:33;2.57;;;2.37;;
15848;SDS011;8024;48.708;9.394;2022-08-21T06:24:01;2.60;;;2.40;;
15848;SDS011;8024;48.708;9.394;2022-08-21T06:26:29;3.23;;;2.23;;
15848;SDS011;8024;48.708;9.394;2022-08-21T06:28:56;4.47;;;2.80;;
15848;SDS011;8024;48.708;9.394;2022-08-21T06:31:25;2.70;;;2.50;;
15848;SDS011;8024;48.708;9.394;2022-08-21T06:33:54;2.50;;;2.40;;
15848;SDS011;8024;48.708;9.394;2022-08-21T06:36:22;2.87;;;2.67;;
15848;SDS011;8024;48.708;9.394;2022-08-21T06:38:49;3.30;;;2.97;;
15848;SDS011;8024;48.708;9.394;2022-08-21T06:41:17;4.30;;;2.87;;
15848;SDS011;8024;48.708;9.394;2022-08-21T06:43:45;3.43;;;2.93;;
15848;SDS011;8024;48.708;9.394;2022-08-21T06:46:12;3.23;;;2.87;;
15848;SDS011;8024;48.708;9.394;2022-08-21T06:48:41;3.63;;;2.63;;
15848;SDS011;8024;48.708;9.394;2022-08-21T06:51:08;2.60;;;2.40;;
15848;SDS011;8024;48.708;9.394;2022-08-21T06:53:35;3.60;;;3.27;;
15848;SDS011;8024;48.708;9.394;2022-08-21T06:56:02;4.43;;;2.83;;
15848;SDS011;8024;48.708;9.394;2022-08-21T06:58:30;3.43;;;3.23;;
15848;SDS011;8024;48.708;9.394;2022-08-21T07:00:57;3.23;;;2.90;;
15848;SDS011;8024;48.708;9.394;2022-08-21T07:03:26;5.77;;;2.60;;
15848;SDS011;8024;48.708;9.394;2022-08-21T07:05:57;3.83;;;3.60;;
15848;SDS011;8024;48.708;9.394;2022-08-21T07:08:24;3.47;;;3.23;;
15848;SDS011;8024;48.708;9.394;2022-08-21T07:10:53;2.93;;;2.73;;
15848;SDS011;8024;48.708;9.394;2022-08-21T07:13:22;3.20;;;2.90;;
15848;SDS011;8024;48.708;9.394;2022-08-21T07:15:49;4.40;;;2.70;;
15848;SDS011;8024;48.708;9.394;2022-08-21T07:18:17;3.27;;;2.63;;
15848;SDS011;8024;48.708;9.394;2022-08-21T07:20:44;3.87;;;3.60;;
15848;SDS011;8024;48.708;9.394;2022-08-21T07:23:15;3.53;;;3.20;;
15848;SDS011;8024;48.708;9.394;2022-08-21T07:25:48;4.57;;;3.73;;
15848;SDS011;8024;48.708;9.394;2022-08-21T07:28:16;4.10;;;3.63;;
15848;SDS011;8024;48.708;9.394;2022-08-21T07:30:43;3.90;;;3.33;;
15848;SDS011;8024;48.708;9.394;2022-08-21T07:33:10;4.80;;;3.30;;
15848;SDS011;8024;48.708;9.394;2022-08-21T07:35:38;4.27;;;3.80;;
15848;SDS011;8024;48.708;9.394;2022-08-21T07:38:05;5.43;;;3.77;;
15848;SDS011;8024;48.708;9.394;2022-08-21T07:40:34;3.93;;;3.63;;
15848;SDS011;8024;48.708;9.394;2022-08-21T07:43:01;4.77;;;3.43;;
15848;SDS011;8024;48.708;9.394;2022-08-21T07:45:28;4.67;;;3.77;;
15848;SDS011;8024;48.708;9.394;2022-08-21T07:47:56;6.23;;;3.47;;
15848;SDS011;8024;48.708;9.394;2022-08-21T07:50:23;4.83;;;3.60;;
15848;SDS011;8024;48.708;9.394;2022-08-21T07:52:51;3.50;;;3.20;;
15848;SDS011;8024;48.708;9.394;2022-08-21T07:55:19;5.57;;;3.40;;
15848;SDS011;8024;48.708;9.394;2022-08-21T07:57:49;4.37;;;3.90;;
15848;SDS011;8024;48.708;9.394;2022-08-21T08:00:17;4.10;;;3.63;;
15848;SDS011;8024;48.708;9.394;2022-08-21T08:02:47;6.43;;;3.97;;
15848;SDS011;8024;48.708;9.394;2022-08-21T08:05:16;4.53;;;3.50;;
15848;SDS011;8024;48.708;9.394;2022-08-21T08:07:46;5.80;;;4.23;;
15848;SDS011;8024;48.708;9.394;2022-08-21T08:10:13;7.23;;;4.30;;
15848;SDS011;8024;48.708;9.394;2022-08-21T08:12:41;6.83;;;3.63;;
15848;SDS011;8024;48.708;9.394;2022-08-21T08:15:11;6.00;;;3.47;;
15848;SDS011;8024;48.708;9.394;2022-08-21T08:17:40;5.83;;;3.93;;
15848;SDS011;8024;48.708;9.394;2022-08-21T08:20:09;5.03;;;4.07;;
15848;SDS011;8024;48.708;9.394;2022-08-21T08:22:38;7.37;;;3.90;;
15848;SDS011;8024;48.708;9.394;2022-08-21T08:25:06;3.80;;;3.27;;
15848;SDS011;8024;48.708;9.394;2022-08-21T08:27:35;5.70;;;3.57;;
15848;SDS011;8024;48.708;9.394;2022-08-21T08:30:04;5.30;;;4.07;;
15848;SDS011;8024;48.708;9.394;2022-08-21T08:32:33;4.40;;;3.77;;
15848;SDS011;8024;48.708;9.394;2022-08-21T08:35:01;5.53;;;4.27;;
15848;SDS011;8024;48.708;9.394;2022-08-21T08:37:28;5.53;;;3.93;;
15848;SDS011;8024;48.708;9.394;2022-08-21T08:39:56;7.37;;;3.73;;
15848;SDS011;8024;48.708;9.394;2022-08-21T08:42:24;4.40;;;3.97;;
15848;SDS011;8024;48.708;9.394;2022-08-21T08:44:55;4.90;;;3.83;;
15848;SDS011;8024;48.708;9.394;2022-08-21T08:47:25;4.93;;;4.43;;
15848;SDS011;8024;48.708;9.394;2022-08-21T08:49:56;5.70;;;4.37;;
15848;SDS011;8024;48.708;9.394;2022-08-21T08:52:29;4.77;;;4.10;;
15848;SDS011;8024;48.708;9.394;2022-08-21T08:55:00;7.30;;;4.60;;
15848;SDS011;8024;48.708;9.394;2022-08-21T08:57:30;6.63;;;4.47;;
15848;SDS011;8024;48.708;9.394;2022-08-21T09:00:00;4.47;;;4.03;;
15848;SDS011;8024;48.708;9.394;2022-08-21T09:02:33;6.57;;;4.30;;
15848;SDS011;8024;48.708;9.394;2022-08-21T09:05:02;5.40;;;4.30;;
15848;SDS011;8024;48.708;9.394;2022-08-21T09:07:34;8.97;;;4.37;;
15848;SDS011;8024;48.708;9.394;2022-08-21T09:10:11;6.63;;;4.70;;
15848;SDS011;8024;48.708;9.394;2022-08-21T09:12:45;5.80;;;4.83;;
15848;SDS011;8024;48.708;9.394;2022-08-21T09:15:23;6.97;;;3.83;;
15848;SDS011;8024;48.708;9.394;2022-08-21T09:18:04;5.93;;;4.57;;
15848;SDS011;8024;48.708;9.394;2022-08-21T09:20:41;4.80;;;4.30;;
15848;SDS011;8024;48.708;9.394;2022-08-21T09:23:17;7.40;;;4.40;;
15848;SDS011;8024;48.708;9.394;2022-08-21T09:25:55;5.97;;;3.90;;
15848;SDS011;8024;48.708;9.394;2022-08-21T09:28:32;4.17;;;3.77;;
15848;SDS011;8024;48.708;9.394;2022-08-21T09:31:01;7.50;;;4.13;;
15848;SDS011;8024;48.708;9.394;2022-08-21T09:33:32;5.03;;;3.83;;
15848;SDS011;8024;48.708;9.394;2022-08-21T09:36:01;6.73;;;4.43;;
15848;SDS011;8024;48.708;9.394;2022-08-21T09:38:30;5.80;;;3.60;;
15848;SDS011;8024;48.708;9.394;2022-08-21T09:41:00;6.83;;;3.60;;
15848;SDS011;8024;48.708;9.394;2022-08-21T09:43:29;3.77;;;3.03;;
15848;SDS011;8024;48.708;9.394;2022-08-21T09:46:02;5.47;;;3.07;;
15848;SDS011;8024;48.708;9.394;2022-08-21T09:48:44;5.07;;;3.03;;
15848;SDS011;8024;48.708;9.394;2022-08-21T09:51:19;6.43;;;3.77;;
15848;SDS011;8024;48.708;9.394;2022-08-21T09:53:48;3.27;;;2.67;;
15848;SDS011;8024;48.708;9.394;2022-08-21T09:56:19;6.83;;;2.97;;
15848;SDS011;8024;48.708;9.394;2022-08-21T09:59:18;5.80;;;3.37;;
15848;SDS011;8024;48.708;9.394;2022-08-21T10:01:50;5.93;;;2.90;;
15848;SDS011;8024;48.708;9.394;2022-08-21T10:04:19;5.23;;;2.97;;
15848;SDS011;8024;48.708;9.394;2022-08-21T10:06:49;7.97;;;3.40;;
15848;SDS011;8024;48.708;9.394;2022-08-21T10:09:17;5.73;;;3.50;;
15848;SDS011;8024;48.708;9.394;2022-08-21T10:11:49;2.90;;;2.60;;
15848;SDS011;8024;48.708;9.394;2022-08-21T10:14:30;5.50;;;2.57;;
15848;SDS011;8024;48.708;9.394;2022-08-21T10:17:11;4.90;;;2.63;;
15848;SDS011;8024;48.708;9.394;2022-08-21T10:19:45;4.53;;;2.73;;
15848;SDS011;8024;48.708;9.394;2022-08-21T10:22:22;5.63;;;2.97;;
15848;SDS011;8024;48.708;9.394;2022-08-21T10:24:58;5.03;;;2.50;;
15848;SDS011;8024;48.708;9.394;2022-08-21T10:27:36;3.70;;;2.40;;
15848;SDS011;8024;48.708;9.394;2022-08-21T10:30:10;3.10;;;2.30;;
15848;SDS011;8024;48.708;9.394;2022-08-21T10:32:44;6.93;;;2.63;;
15848;SDS011;8024;48.708;9.394;2022-08-21T10:35:24;4.00;;;2.70;;
15848;SDS011;8024;48.708;9.394;2022-08-21T10:38:01;4.43;;;2.50;;
15848;SDS011;8024;48.708;9.394;2022-08-21T10:40:48;3.20;;;2.20;;
15848;SDS011;8024;48.708;9.394;2022-08-21T10:43:24;4.67;;;2.47;;
15848;SDS011;8024;48.708;9.394;2022-08-21T10:46:04;5.97;;;2.47;;
15848;SDS011;8024;48.708;9.394;2022-08-21T10:48:38;5.73;;;2.47;;
15848;SDS011;8024;48.708;9.394;2022-08-21T10:51:15;8.17;;;2.97;;
15848;SDS011;8024;48.708;9.394;2022-08-21T10:53:50;4.27;;;2.63;;
15848;SDS011;8024;48.708;9.394;2022-08-21T10:56:26;3.23;;;2.10;;
15848;SDS011;8024;48.708;9.394;2022-08-21T10:59:02;5.00;;;2.40;;
15848;SDS011;8024;48.708;9.394;2022-08-21T11:01:44;5.87;;;1.93;;
15848;SDS011;8024;48.708;9.394;2022-08-21T11:04:16;5.93;;;2.83;;
15848;SDS011;8024;48.708;9.394;2022-08-21T11:06:47;5.30;;;2.40;;
15848;SDS011;8024;48.708;9.394;2022-08-21T11:09:22;3.97;;;2.83;;
15848;SDS011;8024;48.708;9.394;2022-08-21T11:11:52;4.33;;;2.10;;
15848;SDS011;8024;48.708;9.394;2022-08-21T11:14:29;3.50;;;2.30;;
15848;SDS011;8024;48.708;9.394;2022-08-21T11:17:05;4.90;;;2.63;;
15848;SDS011;8024;48.708;9.394;2022-08-21T11:19:35;5.77;;;2.67;;
15848;SDS011;8024;48.708;9.394;2022-08-21T11:22:08;3.77;;;2.40;;
15848;SDS011;8024;48.708;9.394;2022-08-21T11:24:44;3.53;;;2.10;;
15848;SDS011;8024;48.708;9.394;2022-08-21T11:27:18;5.17;;;2.27;;
15848;SDS011;8024;48.708;9.394;2022-08-21T11:29:51;3.70;;;2.00;;
15848;SDS011;8024;48.708;9.394;2022-08-21T11:35:13;2.20;;;2.00;;
15848;SDS011;8024;48.708;9.394;2022-08-21T11:37:49;5.07;;;2.40;;
15848;SDS011;8024;48.708;9.394;2022-08-21T11:40:34;3.97;;;2.17;;
15848;SDS011;8024;48.708;9.394;2022-08-21T11:43:11;4.22;;;1.90;;
15848;SDS011;8024;48.708;9.394;2022-08-21T11:45:43;4.30;;;1.70;;
15848;SDS011;8024;48.708;9.394;2022-08-21T11:48:16;4.38;;;2.00;;
15848;SDS011;8024;48.708;9.394;2022-08-21T11:51:00;5.90;;;1.83;;
15848;SDS011;8024;48.708;9.394;2022-08-21T11:53:32;4.03;;;2.13;;
15848;SDS011;8024;48.708;9.394;2022-08-21T11:56:06;3.33;;;1.80;;
15848;SDS011;8024;48.708;9.394;2022-08-21T11:58:38;5.00;;;2.15;;
15848;SDS011;8024;48.708;9.394;2022-08-21T12:01:08;2.67;;;1.80;;
15848;SDS011;8024;48.708;9.394;2022-08-21T12:03:39;3.70;;;1.92;;
15848;SDS011;8024;48.708;9.394;2022-08-21T12:06:09;3.20;;;2.00;;
15848;SDS011;8024;48.708;9.394;2022-08-21T12:08:38;3.95;;;1.92;;
15848;SDS011;8024;48.708;9.394;2022-08-21T12:11:09;4.32;;;1.77;;
15848;SDS011;8024;48.708;9.394;2022-08-21T12:13:52;5.68;;;2.03;;
15848;SDS011;8024;48.708;9.394;2022-08-21T12:16:28;5.78;;;2.03;;
15848;SDS011;8024;48.708;9.394;2022-08-21T12:19:02;6.00;;;2.13;;
15848;SDS011;8024;48.708;9.394;2022-08-21T12:21:30;4.28;;;1.73;;
15848;SDS011;8024;48.708;9.394;2022-08-21T12:24:02;3.25;;;1.83;;
15848;SDS011;8024;48.708;9.394;2022-08-21T12:26:49;4.00;;;2.15;;
15848;SDS011;8024;48.708;9.394;2022-08-21T12:29:21;4.28;;;1.80;;
15848;SDS011;8024;48.708;9.394;2022-08-21T12:31:51;4.43;;;1.83;;
15848;SDS011;8024;48.708;9.394;2022-08-21T12:34:21;3.25;;;1.77;;
15848;SDS011;8024;48.708;9.394;2022-08-21T12:36:56;4.75;;;1.63;;
15848;SDS011;8024;48.708;9.394;2022-08-21T12:39:27;2.95;;;1.75;;
15848;SDS011;8024;48.708;9.394;2022-08-21T12:42:00;4.53;;;1.80;;
15848;SDS011;8024;48.708;9.394;2022-08-21T12:44:35;2.33;;;1.60;;
15848;SDS011;8024;48.708;9.394;2022-08-21T12:47:11;2.47;;;1.70;;
15848;SDS011;8024;48.708;9.394;2022-08-21T12:49:44;2.63;;;1.60;;
15848;SDS011;8024;48.708;9.394;2022-08-21T12:52:19;2.58;;;1.40;;
15848;SDS011;8024;48.708;9.394;2022-08-21T12:54:48;1.52;;;1.13;;
15848;SDS011;8024;48.708;9.394;2022-08-21T12:57:21;2.40;;;1.60;;
15848;SDS011;8024;48.708;9.394;2022-08-21T12:59:53;2.92;;;1.48;;
15848;SDS011;8024;48.708;9.394;2022-08-21T13:02:23;2.95;;;1.55;;
15848;SDS011;8024;48.708;9.394;2022-08-21T13:04:52;3.00;;;1.60;;
15848;SDS011;8024;48.708;9.394;2022-08-21T13:07:22;2.92;;;1.60;;
15848;SDS011;8024;48.708;9.394;2022-08-21T13:09:54;3.00;;;1.13;;
15848;SDS011;8024;48.708;9.394;2022-08-21T13:12:24;2.63;;;1.17;;
15848;SDS011;8024;48.708;9.394;2022-08-21T13:14:55;2.30;;;0.82;;
15848;SDS011;8024;48.708;9.394;2022-08-21T13:17:24;2.13;;;0.82;;
15848;SDS011;8024;48.708;9.394;2022-08-21T13:19:53;2.72;;;1.30;;
15848;SDS011;8024;48.708;9.394;2022-08-21T13:22:22;0.93;;;0.90;;
15848;SDS011;8024;48.708;9.394;2022-08-21T13:24:51;2.05;;;0.88;;
15848;SDS011;8024;48.708;9.394;2022-08-21T13:27:19;1.77;;;0.80;;
15848;SDS011;8024;48.708;9.394;2022-08-21T13:30:04;1.33;;;0.88;;
15848;SDS011;8024;48.708;9.394;2022-08-21T13:32:34;1.92;;;1.00;;
15848;SDS011;8024;48.708;9.394;2022-08-21T13:35:09;2.38;;;0.90;;
15848;SDS011;8024;48.708;9.394;2022-08-21T13:37:39;1.10;;;1.00;;
15848;SDS011;8024;48.708;9.394;2022-08-21T13:40:07;1.10;;;1.00;;
15848;SDS011;8024;48.708;9.394;2022-08-21T13:42:40;1.40;;;0.93;;
15848;SDS011;8024;48.708;9.394;2022-08-21T13:45:16;1.95;;;0.63;;
15848;SDS011;8024;48.708;9.394;2022-08-21T13:47:50;1.48;;;0.93;;
15848;SDS011;8024;48.708;9.394;2022-08-21T13:50:19;2.13;;;1.27;;
15848;SDS011;8024;48.708;9.394;2022-08-21T13:52:55;2.50;;;0.82;;
15848;SDS011;8024;48.708;9.394;2022-08-21T13:55:24;3.13;;;0.85;;
15848;SDS011;8024;48.708;9.394;2022-08-21T13:58:01;0.90;;;0.90;;
15848;SDS011;8024;48.708;9.394;2022-08-21T14:00:30;1.35;;;0.77;;
15848;SDS011;8024;48.708;9.394;2022-08-21T14:03:01;0.70;;;0.70;;
15848;SDS011;8024;48.708;9.394;2022-08-21T14:05:32;0.80;;;0.80;;
15848;SDS011;8024;48.708;9.394;2022-08-21T14:08:03;1.02;;;0.80;;
15848;SDS011;8024;48.708;9.394;2022-08-21T14:10:34;1.80;;;0.93;;
15848;SDS011;8024;48.708;9.394;2022-08-21T14:13:05;0.95;;;0.80;;
15848;SDS011;8024;48.708;9.394;2022-08-21T14:15:33;3.13;;;1.20;;
15848;SDS011;8024;48.708;9.394;2022-08-21T14:18:09;1.40;;;1.02;;
15848;SDS011;8024;48.708;9.394;2022-08-21T14:20:40;0.90;;;0.70;;
15848;SDS011;8024;48.708;9.394;2022-08-21T14:23:07;3.13;;;1.23;;
15848;SDS011;8024;48.708;9.394;2022-08-21T14:25:39;1.08;;;0.90;;
15848;SDS011;8024;48.708;9.394;2022-08-21T14:28:13;1.25;;;0.85;;
15848;SDS011;8024;48.708;9.394;2022-08-21T14:30:45;1.00;;;0.88;;
15848;SDS011;8024;48.708;9.394;2022-08-21T14:33:17;1.30;;;1.00;;
15848;SDS011;8024;48.708;9.394;2022-08-21T14:35:47;1.63;;;1.08;;
15848;SDS011;8024;48.708;9.394;2022-08-21T14:38:15;2.42;;;0.80;;
15848;SDS011;8024;48.708;9.394;2022-08-21T14:40:44;2.28;;;1.10;;
15848;SDS011;8024;48.708;9.394;2022-08-21T14:43:15;2.47;;;0.77;;
15848;SDS011;8024;48.708;9.394;2022-08-21T14:45:44;2.10;;;1.02;;
15848;SDS011;8024;48.708;9.394;2022-08-21T14:48:11;1.40;;;0.85;;
15848;SDS011;8024;48.708;9.394;2022-08-21T14:50:38;1.17;;;1.08;;
15848;SDS011;8024;48.708;9.394;2022-08-21T14:53:05;2.40;;;1.13;;
15848;SDS011;8024;48.708;9.394;2022-08-21T14:55:33;1.92;;;0.90;;
15848;SDS011;8024;48.708;9.394;2022-08-21T14:58:22;1.38;;;1.20;;
15848;SDS011;8024;48.708;9.394;2022-08-21T15:00:50;1.17;;;0.85;;
15848;SDS011;8024;48.708;9.394;2022-08-21T15:03:18;3.88;;;1.13;;
15848;SDS011;8024;48.708;9.394;2022-08-21T15:05:46;1.80;;;1.10;;
15848;SDS011;8024;48.708;9.394;2022-08-21T15:08:14;1.25;;;0.80;;
15848;SDS011;8024;48.708;9.394;2022-08-21T15:10:42;3.65;;;1.40;;
15848;SDS011;8024;48.708;9.394;2022-08-21T15:13:09;4.30;;;1.40;;
15848;SDS011;8024;48.708;9.394;2022-08-21T15:15:40;0.95;;;0.88;;
15848;SDS011;8024;48.708;9.394;2022-08-21T15:18:09;2.03;;;0.80;;
15848;SDS011;8024;48.708;9.394;2022-08-21T15:20:36;1.25;;;1.00;;